Time;durP1;ratioP1;P1;durP2;ratioP2;P2;SDS_P1;SDS_P2;PMS_P1;PMS_P2;Temp;Humidity;BMP_temperature;BMP_pressure;BME280_temperature;BME280_humidity;BME280_pressure;Samples;Min_cycle;Max_cycle;Signal;HPM_P1;HPM_P2
2022/02/04 00:06:48;;;;;;;16.37;10.20;;;;;;;0.13;76.75;100763.09;1429948;91;21628;-80
2022/02/04 00:24:49;;;;;;;21.65;12.03;;;;;;;0.15;76.33;100771.68;1429798;91;21685;-82
2022/02/04 00:27:20;;;;;;;17.40;9.73;;;;;;;0.16;76.36;100775.95;1427819;91;22360;-82
2022/02/04 00:30:05;;;;;;;18.42;10.88;;;;;;;0.15;76.46;100779.48;1430666;91;21937;-81
2022/02/04 00:32:29;;;;;;;17.32;11.38;;;;;;;0.14;76.65;100772.58;1432855;91;21472;-82
2022/02/04 00:35:07;;;;;;;19.48;11.22;;;;;;;0.14;76.56;100776.48;1406333;91;21612;-81
2022/02/04 00:37:40;;;;;;;15.70;10.85;;;;;;;0.15;76.81;100772.98;1424957;91;21633;-82
2022/02/04 00:40:09;;;;;;;15.63;9.48;;;;;;;0.12;76.75;100772.66;1408246;91;21539;-81
2022/02/04 00:42:29;;;;;;;20.23;11.10;;;;;;;0.11;77.22;100762.31;1387311;91;21648;-79
2022/02/04 00:45:10;;;;;;;17.03;10.27;;;;;;;0.09;77.51;100762.40;1425046;91;22274;-79
2022/02/04 00:47:28;;;;;;;16.95;9.85;;;;;;;0.10;77.37;100764.54;1413932;91;22169;-80
2022/02/04 00:50:06;;;;;;;18.40;11.40;;;;;;;0.12;77.41;100764.86;1431546;91;21486;-80
2022/02/04 00:55:13;;;;;;;17.52;11.15;;;;;;;0.13;77.64;100765.70;1430367;91;22177;-81
2022/02/04 00:57:50;;;;;;;17.40;10.60;;;;;;;0.12;77.58;100759.65;1405419;91;21524;-81
2022/02/04 01:27:36;;;;;;;19.73;11.30;;;;;;;-0.01;78.45;100764.58;1375271;95;21584;-79
2022/02/04 01:30:17;;;;;;;16.48;10.55;;;;;;;0.00;78.69;100762.84;1372481;95;21754;-79
2022/02/04 01:32:35;;;;;;;18.87;10.90;;;;;;;-0.02;78.95;100761.59;1359421;95;21495;-79
2022/02/04 01:35:03;;;;;;;19.62;11.63;;;;;;;-0.06;79.46;100763.97;1369510;95;21473;-79
2022/02/04 01:37:30;;;;;;;19.42;12.50;;;;;;;-0.06;79.01;100760.06;1370807;95;21501;-79
2022/02/04 01:39:58;;;;;;;20.68;11.10;;;;;;;-0.04;78.74;100758.21;1368979;95;22731;-79
2022/02/04 01:42:25;;;;;;;17.75;11.68;;;;;;;-0.02;78.82;100760.76;1373595;91;21453;-79
2022/02/04 01:44:52;;;;;;;18.32;10.85;;;;;;;-0.03;78.84;100757.75;1412238;91;21535;-79
2022/02/04 01:47:19;;;;;;;23.22;12.33;;;;;;;-0.06;79.61;100752.69;1419831;92;21506;-79
2022/02/04 01:49:46;;;;;;;22.35;13.08;;;;;;;-0.06;79.38;100756.16;1428256;91;21408;-79
2022/02/04 01:52:13;;;;;;;19.35;12.00;;;;;;;-0.05;78.93;100755.23;1427050;91;21580;-79
2022/02/04 01:54:40;;;;;;;17.90;10.63;;;;;;;-0.03;79.21;100756.02;1430453;91;21587;-80
2022/02/04 01:57:07;;;;;;;22.40;10.93;;;;;;;-0.05;79.28;100751.33;1428510;91;21417;-80
2022/02/04 01:59:35;;;;;;;21.30;11.55;;;;;;;-0.05;79.48;100752.64;1412609;91;21491;-80
2022/02/04 02:02:02;;;;;;;20.85;11.68;;;;;;;-0.07;79.54;100751.85;1435020;91;21506;-80
2022/02/04 02:04:29;;;;;;;18.55;11.78;;;;;;;-0.06;79.48;100747.05;1422380;91;21968;-80
2022/02/04 02:06:59;;;;;;;22.80;11.50;;;;;;;-0.05;79.50;100759.14;1429497;91;21432;-80
2022/02/04 02:09:49;;;;;;;18.40;10.98;;;;;;;-0.04;79.30;100758.21;1433859;91;21646;-80
2022/02/04 02:12:07;;;;;;;18.65;11.15;;;;;;;-0.02;79.67;100756.86;1427271;91;21670;-80
2022/02/04 02:14:35;;;;;;;18.25;10.90;;;;;;;-0.03;79.83;100759.05;1433488;91;22613;-80
2022/02/04 02:33:42;;;;;;;17.20;12.07;;;;;;;-0.04;79.71;100757.38;1429308;91;22712;-80
2022/02/04 02:48:37;;;;;;;20.70;13.08;;;;;;;-0.12;80.78;100751.22;1412880;93;21555;-80
2022/02/04 02:51:25;;;;;;;22.95;12.37;;;;;;;-0.12;80.55;100748.62;1406277;93;21608;-81
2022/02/04 02:58:52;;;;;;;21.97;13.38;;;;;;;-0.15;80.80;100730.55;1410827;92;22325;-80
2022/02/04 03:01:13;;;;;;;21.20;12.58;;;;;;;-0.15;80.63;100729.71;1407228;93;21509;-80
2022/02/04 03:03:43;;;;;;;26.15;14.70;;;;;;;-0.15;80.74;100731.02;1432081;91;21639;-80
2022/02/04 03:06:09;;;;;;;21.50;14.85;;;;;;;-0.14;80.50;100726.22;1429246;91;21598;-80
2022/02/04 03:08:36;;;;;;;21.82;13.78;;;;;;;-0.14;80.75;100723.61;1443926;91;21635;-80
2022/02/04 03:11:03;;;;;;;19.92;12.37;;;;;;;-0.16;80.97;100722.38;1433892;91;22419;-80
2022/02/04 03:13:32;;;;;;;36.00;13.65;;;;;;;-0.16;80.65;100719.77;1433340;91;21499;-79
2022/02/04 03:16:03;;;;;;;21.97;13.13;;;;;;;-0.14;80.62;100714.51;1433938;91;22544;-79
2022/02/04 03:18:33;;;;;;;21.90;12.98;;;;;;;-0.12;80.53;100716.56;1428977;91;21573;-80
2022/02/04 03:21:06;;;;;;;22.50;12.60;;;;;;;-0.12;80.38;100720.00;1430428;91;21579;-79
2022/02/04 03:23:30;;;;;;;18.15;12.30;;;;;;;-0.11;80.31;100728.20;1430258;91;21621;-79
2022/02/04 03:26:05;;;;;;;21.68;13.18;;;;;;;-0.11;80.57;100729.51;1410703;92;21553;-80
2022/02/04 03:28:29;;;;;;;23.47;14.15;;;;;;;-0.12;80.62;100717.39;1401580;92;21435;-80
2022/02/04 03:30:56;;;;;;;25.55;13.13;;;;;;;-0.12;80.57;100725.20;1401016;92;21419;-80
2022/02/04 03:33:27;;;;;;;24.45;15.38;;;;;;;-0.10;80.24;100719.48;1404085;92;21705;-80
2022/02/04 03:35:53;;;;;;;22.87;14.80;;;;;;;-0.10;80.33;100725.14;1418203;92;22543;-80
2022/02/04 03:38:21;;;;;;;21.25;13.80;;;;;;;-0.07;80.15;100721.93;1419035;92;21464;-80
2022/02/04 03:40:48;;;;;;;24.60;13.38;;;;;;;-0.09;80.23;100715.95;1396306;92;21420;-80
2022/02/04 03:43:15;;;;;;;25.65;13.93;;;;;;;-0.09;80.20;100713.81;1393922;92;22742;-80
2022/02/04 03:45:42;;;;;;;20.27;13.35;;;;;;;-0.10;80.17;100707.77;1399928;91;21682;-80
2022/02/04 03:48:09;;;;;;;30.90;14.00;;;;;;;-0.09;80.09;100708.14;1441217;91;21477;-80
2022/02/04 03:50:37;;;;;;;26.42;15.05;;;;;;;-0.08;80.25;100705.95;1434160;91;21981;-80
2022/02/04 03:53:06;;;;;;;25.57;14.73;;;;;;;-0.09;80.19;100708.60;1388699;91;21425;-80
2022/02/04 03:55:33;;;;;;;20.70;13.58;;;;;;;-0.07;79.95;100704.18;1414299;91;21536;-80
2022/02/04 03:58:00;;;;;;;24.80;14.68;;;;;;;-0.09;79.98;100708.14;1397805;92;21585;-80
2022/02/04 04:00:27;;;;;;;24.32;16.17;;;;;;;-0.08;79.85;100707.25;1435777;91;21615;-80
2022/02/04 04:02:54;;;;;;;24.80;15.38;;;;;;;-0.08;80.09;100695.53;1384307;91;21614;-80
2022/02/04 04:05:22;;;;;;;27.25;15.58;;;;;;;-0.08;79.96;100694.23;1418166;91;21446;-80
2022/02/04 04:07:50;;;;;;;23.40;13.53;;;;;;;-0.10;80.56;100688.72;1433258;91;21468;-80
2022/02/04 04:10:24;;;;;;;26.77;15.03;;;;;;;-0.09;80.10;100683.42;1360871;94;22494;-80
2022/02/04 04:12:52;;;;;;;24.35;15.38;;;;;;;-0.07;80.18;100687.27;1391924;94;21679;-80
2022/02/04 04:15:20;;;;;;;23.43;15.33;;;;;;;-0.05;80.00;100694.55;1413397;91;21431;-80
2022/02/04 04:17:47;;;;;;;23.07;13.78;;;;;;;-0.05;80.12;100691.48;1402834;92;21825;-80
2022/02/04 04:20:19;;;;;;;21.80;12.88;;;;;;;-0.05;79.98;100688.88;1435823;91;21461;-80
2022/02/04 04:22:47;;;;;;;23.95;13.58;;;;;;;-0.07;80.03;100686.80;1396710;92;21460;-80
2022/02/04 04:25:15;;;;;;;23.80;14.03;;;;;;;-0.06;79.90;100691.11;1412833;91;21277;-80
2022/02/04 04:27:44;;;;;;;26.07;15.18;;;;;;;-0.06;79.95;100693.72;1433266;91;21467;-80
2022/02/04 04:30:15;;;;;;;28.42;16.75;;;;;;;-0.04;79.92;100690.56;1410865;91;21396;-80
2022/02/04 04:32:44;;;;;;;23.70;14.47;;;;;;;-0.03;79.81;100695.30;1435246;91;22447;-80
2022/02/04 04:35:15;;;;;;;23.00;13.25;;;;;;;-0.04;80.08;100696.23;1436376;91;21520;-80
2022/02/04 04:37:51;;;;;;;23.38;14.30;;;;;;;-0.04;79.60;100697.06;1407856;91;21347;-80
2022/02/04 04:45:59;;;;;;;31.62;17.90;;;;;;;-0.06;80.04;100698.92;1438508;90;22441;-78
2022/02/04 05:29:33;;;;;;;20.83;12.67;;;;;;;-0.03;79.81;100711.78;1404512;92;21465;-80
2022/02/04 05:32:00;;;;;;;17.70;11.10;;;;;;;-0.02;79.67;100712.16;1418357;92;21439;-78
2022/02/04 05:34:27;;;;;;;20.57;12.18;;;;;;;-0.03;79.56;100716.98;1418942;92;21580;-78
2022/02/04 05:37:02;;;;;;;20.40;11.60;;;;;;;-0.01;79.48;100711.23;1403867;92;21547;-79
2022/02/04 05:39:27;;;;;;;19.50;10.40;;;;;;;-0.01;79.32;100715.59;1417720;92;21712;-79
2022/02/04 05:41:52;;;;;;;20.35;11.45;;;;;;;-0.01;79.33;100717.73;1390848;92;22630;-80
2022/02/04 05:44:19;;;;;;;20.63;12.43;;;;;;;0.01;79.15;100715.07;1395562;92;21420;-80
2022/02/04 05:47:07;;;;;;;16.87;12.47;;;;;;;0.05;79.12;100712.70;1418148;90;22740;-81
2022/02/04 05:49:27;;;;;;;23.53;11.97;;;;;;;0.08;78.86;100711.70;1410516;92;21791;-80
2022/02/04 05:52:06;;;;;;;25.62;11.93;;;;;;;0.09;78.81;100710.34;1419312;91;21676;-80
2022/02/04 05:54:41;;;;;;;20.57;12.43;;;;;;;0.07;78.70;100713.94;1411394;92;22434;-80
2022/02/04 05:57:05;;;;;;;19.63;12.70;;;;;;;0.08;78.60;100714.31;1430636;91;21702;-80
2022/02/04 05:59:43;;;;;;;16.80;11.07;;;;;;;0.11;78.54;100715.46;1436801;91;22472;-80
2022/02/04 06:04:44;;;;;;;18.43;10.13;;;;;;;0.12;78.33;100718.00;1432847;91;21585;-80
2022/02/04 06:23:14;;;;;;;16.53;11.67;;;;;;;0.35;77.53;100737.72;1410505;91;21662;-82
2022/02/04 06:25:44;;;;;;;20.43;13.00;;;;;;;0.36;77.50;100730.75;1443013;91;22602;-80
2022/02/04 06:28:15;;;;;;;18.17;12.18;;;;;;;0.36;77.30;100734.19;1411615;92;21649;-80
2022/02/04 06:30:45;;;;;;;19.87;11.57;;;;;;;0.36;77.14;100739.39;1401147;93;22339;-80
2022/02/04 06:33:13;;;;;;;19.02;11.83;;;;;;;0.38;77.09;100737.56;1386577;93;21540;-80
2022/02/04 06:35:42;;;;;;;20.20;11.13;;;;;;;0.39;77.03;100733.20;1403080;93;21939;-79
2022/02/04 06:38:09;;;;;;;22.73;11.13;;;;;;;0.41;76.96;100738.72;1406654;93;22049;-80
2022/02/04 06:40:37;;;;;;;19.57;11.33;;;;;;;0.40;76.59;100737.05;1397788;93;21638;-80
2022/02/04 06:43:04;;;;;;;19.93;11.70;;;;;;;0.41;76.54;100742.63;1403148;92;23145;-80
2022/02/04 06:45:31;;;;;;;16.50;11.17;;;;;;;0.44;76.61;100743.77;1401948;93;21881;-80
2022/02/04 06:47:59;;;;;;;18.70;11.17;;;;;;;0.48;76.68;100740.55;1413001;90;21917;-80
2022/02/04 06:50:26;;;;;;;16.67;10.77;;;;;;;0.52;76.54;100747.31;1410171;92;21516;-80
2022/02/04 06:52:53;;;;;;;19.57;10.63;;;;;;;0.60;76.76;100741.70;1440633;90;21672;-80
2022/02/04 06:55:22;;;;;;;16.37;10.20;;;;;;;0.71;76.68;100741.17;1403312;92;22560;-80
2022/02/04 06:57:51;;;;;;;19.30;10.77;;;;;;;0.78;76.39;100742.11;1416525;91;21806;-80
2022/02/04 07:00:18;;;;;;;19.17;11.00;;;;;;;0.82;76.08;100735.80;1482291;90;21697;-79
2022/02/04 07:02:47;;;;;;;14.30;8.83;;;;;;;0.89;76.02;100742.41;1410953;92;21885;-79
2022/02/04 07:05:15;;;;;;;17.10;10.40;;;;;;;0.95;75.71;100744.30;1414075;92;21664;-80
2022/02/04 07:07:49;;;;;;;17.10;10.40;;;;;;;0.97;75.44;100743.77;1445496;90;21563;-80
2022/02/04 07:10:22;;;;;;;20.13;10.83;;;;;;;0.98;75.06;100741.09;1441307;90;22384;-80
2022/02/04 07:12:51;;;;;;;18.97;10.30;;;;;;;1.00;74.73;100743.61;1398338;92;21576;-79
2022/02/04 07:18:03;;;;;;;17.50;10.43;;;;;;;1.01;74.51;100733.58;1419489;91;21686;-77
2022/02/04 07:20:27;;;;;;;18.10;12.00;;;;;;;1.03;74.61;100726.50;1440363;90;22797;-76
2022/02/04 07:22:55;;;;;;;14.47;9.20;;;;;;;1.05;74.36;100728.58;1419160;92;21686;-76
2022/02/04 07:25:22;;;;;;;16.07;9.60;;;;;;;1.01;74.02;100732.28;1438780;90;22574;-76
2022/02/04 07:27:49;;;;;;;18.73;10.23;;;;;;;0.98;74.03;100729.80;1437634;89;21551;-77
2022/02/04 07:30:17;;;;;;;19.70;10.17;;;;;;;1.00;74.23;100731.87;1440995;89;22637;-77
2022/02/04 07:32:55;;;;;;;19.57;12.07;;;;;;;1.03;74.12;100734.32;1390042;92;22555;-77
2022/02/04 07:35:21;;;;;;;19.27;11.57;;;;;;;1.04;73.98;100730.81;1433943;90;21865;-77
2022/02/04 07:43:14;;;;;;;25.03;11.57;;;;;;;1.18;74.03;100728.77;1438428;90;21679;-77
2022/02/04 07:45:42;;;;;;;18.07;9.90;;;;;;;1.25;73.65;100729.68;1437019;90;22540;-77
2022/02/04 07:48:09;;;;;;;16.40;10.00;;;;;;;1.31;73.37;100733.27;1418287;91;21668;-77
2022/02/04 07:50:36;;;;;;;14.93;9.87;;;;;;;1.38;73.45;100719.89;1419710;92;21717;-80
2022/02/04 07:53:04;;;;;;;15.07;9.80;;;;;;;1.45;73.28;100720.80;1420380;91;22495;-78
2022/02/04 07:55:31;;;;;;;15.20;9.73;;;;;;;1.55;73.20;100750.70;1410555;93;23417;-79
2022/02/04 07:57:58;;;;;;;14.50;9.63;;;;;;;1.53;71.92;100749.94;1382724;94;21788;-79
2022/02/04 08:00:27;;;;;;;17.43;9.77;;;;;;;1.48;71.96;100753.70;1409605;93;21689;-79
2022/02/04 08:02:54;;;;;;;21.57;11.47;;;;;;;1.51;72.11;100736.13;1392758;94;22535;-78
2022/02/04 08:05:27;;;;;;;16.27;10.00;;;;;;;1.56;72.34;100738.03;1392229;93;22573;-79
2022/02/04 08:08:17;;;;;;;18.83;11.20;;;;;;;1.66;72.42;100731.00;1390750;94;22292;-79
2022/02/04 08:21:16;;;;;;;13.73;8.77;;;;;;;1.78;70.87;100701.18;1384899;92;21458;-80
2022/02/04 08:31:42;;;;;;;18.83;8.93;;;;;;;1.78;70.21;100709.02;1400890;91;21781;-83
2022/02/04 08:36:51;;;;;;;12.30;8.40;;;;;;;1.78;69.07;100715.53;1399349;91;20379;-82
2022/02/04 08:52:29;;;;;;;13.30;8.88;;;;;;;2.01;69.50;100726.45;1402070;92;21771;-83
2022/02/04 08:54:52;;;;;;;12.73;8.63;;;;;;;2.06;68.98;100734.88;1406187;91;21379;-84
2022/02/04 08:57:35;;;;;;;13.13;8.77;;;;;;;2.06;68.46;100720.52;1435611;84;22255;-82
2022/02/04 09:00:01;;;;;;;15.43;8.57;;;;;;;2.11;68.64;100725.48;1443017;87;21790;-82
2022/02/04 09:02:38;;;;;;;15.43;8.77;;;;;;;2.15;68.19;100720.45;1426303;90;23699;-82
2022/02/04 09:05:11;;;;;;;13.13;8.07;;;;;;;2.24;68.23;100714.70;1447571;91;21725;-82
2022/02/04 09:07:55;;;;;;;11.47;7.80;;;;;;;2.31;67.60;100710.00;1418034;91;21884;-81
2022/02/04 09:10:23;;;;;;;14.10;7.67;;;;;;;2.36;67.38;100706.19;1410824;92;22589;-82
2022/02/04 09:20:40;;;;;;;10.70;7.43;;;;;;;2.77;67.84;100713.86;1430356;92;22697;-82
2022/02/04 09:23:05;;;;;;;11.90;7.27;;;;;;;2.81;66.27;100712.73;1414940;92;22131;-81
2022/02/04 09:25:32;;;;;;;9.65;7.30;;;;;;;2.85;66.00;100719.45;1411947;91;22278;-82
2022/02/04 09:27:59;;;;;;;12.67;6.87;;;;;;;2.89;65.72;100723.11;1405873;92;21540;-82
2022/02/04 09:30:27;;;;;;;10.23;7.13;;;;;;;3.00;66.20;100714.63;1416602;91;22892;-82
2022/02/04 09:32:54;;;;;;;10.93;5.83;;;;;;;3.11;65.81;100708.29;1410745;91;21781;-82
2022/02/04 09:35:23;;;;;;;10.17;6.37;;;;;;;3.26;65.19;100714.36;1410546;91;21853;-83
2022/02/04 09:37:52;;;;;;;9.87;6.73;;;;;;;3.26;65.19;100714.36;1419590;91;22895;-84
2022/02/04 09:40:21;;;;;;;9.90;6.57;;;;;;;3.34;63.74;100712.59;1417228;90;21903;-81
2022/02/04 09:42:50;;;;;;;8.90;6.03;;;;;;;3.31;62.15;100707.52;1414864;91;22094;-82
2022/02/04 09:45:27;;;;;;;8.93;5.73;;;;;;;3.29;62.74;100715.48;1410825;90;22173;-82
2022/02/04 09:48:05;;;;;;;10.60;6.60;;;;;;;3.33;62.40;100706.97;1422199;91;21980;-82
2022/02/04 09:50:39;;;;;;;10.13;5.87;;;;;;;3.33;62.40;100706.97;1498688;91;22140;-82
2022/02/04 10:07:21;;;;;;;9.73;6.30;;;;;;;3.63;61.57;100692.94;1437616;89;22993;-84
2022/02/04 10:09:52;;;;;;;8.60;5.73;;;;;;;3.61;61.10;100683.38;1429009;91;22449;-84
2022/02/04 10:12:33;;;;;;;7.63;5.97;;;;;;;3.53;61.08;100675.16;1405839;91;23238;-83
2022/02/04 10:18:14;;;;;;;9.90;6.10;;;;;;;3.68;61.79;100665.97;1433965;89;22197;-86
2022/02/04 10:20:39;;;;;;;10.37;6.37;;;;;;;3.83;60.76;100662.40;1442989;89;22186;-85
2022/02/04 10:23:06;;;;;;;15.37;6.43;;;;;;;3.99;59.39;100656.52;1443391;89;22356;-85
2022/02/04 10:25:42;;;;;;;10.97;5.97;;;;;;;4.21;61.08;100657.75;1444019;89;22217;-85
2022/02/04 10:28:27;;;;;;;12.73;7.10;;;;;;;4.68;58.90;100652.41;1435667;89;22119;-84
2022/02/04 10:31:18;;;;;;;7.17;4.37;;;;;;;4.68;58.90;100652.41;1461398;89;22344;-85
2022/02/04 10:34:12;;;;;;;9.35;6.10;;;;;;;5.03;58.26;100656.53;1452313;89;21427;-85
2022/02/04 10:36:54;;;;;;;8.45;5.85;;;;;;;5.43;57.64;100654.58;1523139;89;21428;-85
2022/02/04 10:56:13;;;;;;;8.25;5.55;;;;;;;6.32;50.52;100622.32;1383974;94;21383;-84
2022/02/04 11:04:19;;;;;;;16.30;9.73;;;;;;;6.36;52.28;100615.90;1376242;95;21509;-85
2022/02/04 11:09:41;;;;;;;10.03;5.53;;;;;;;7.10;51.41;100608.41;1370944;95;22575;-85
2022/02/04 11:31:20;;;;;;;8.00;6.13;;;;;;;7.23;49.06;100580.16;1400512;93;21398;-86
2022/02/04 11:34:53;;;;;;;9.73;5.13;;;;;;;7.27;47.21;100582.55;1340287;94;22496;-85
2022/02/04 11:52:05;;;;;;;8.83;4.10;;;;;;;9.53;43.87;100555.09;1322713;94;21502;-83
2022/02/04 11:54:30;;;;;;;10.33;4.20;;;;;;;9.85;44.15;100549.05;1451030;94;22522;-82
2022/02/04 11:57:03;;;;;;;8.20;4.23;;;;;;;10.16;42.43;100555.00;1470600;94;21222;-82
2022/02/04 11:59:50;;;;;;;10.90;4.60;;;;;;;10.41;42.03;100543.48;1470480;94;21237;-82
2022/02/04 12:02:33;;;;;;;7.37;5.20;;;;;;;10.71;42.02;100546.39;1380765;94;21606;-82
2022/02/04 12:05:11;;;;;;;6.07;4.40;;;;;;;11.03;42.39;100542.47;1447919;89;22447;-82
2022/02/04 12:07:51;;;;;;;5.33;4.13;;;;;;;11.35;41.35;100539.34;1454374;89;23429;-84
2022/02/04 12:10:23;;;;;;;5.80;4.13;;;;;;;11.57;38.32;100527.48;1459784;89;21413;-83
2022/02/04 12:13:05;;;;;;;5.63;3.63;;;;;;;11.54;40.42;100533.09;1459556;89;21471;-84
2022/02/04 12:15:33;;;;;;;7.17;5.13;;;;;;;11.35;40.19;100523.94;1453561;89;21662;-83
2022/02/04 12:18:21;;;;;;;7.83;4.77;;;;;;;11.15;40.51;100521.91;1539753;89;22220;-83
2022/02/04 12:20:57;;;;;;;6.27;4.53;;;;;;;11.08;39.64;100524.33;1516614;89;21214;-83
2022/02/04 12:23:34;;;;;;;10.33;6.43;;;;;;;10.79;39.35;100525.31;1459655;91;22634;-82
2022/02/04 12:26:19;;;;;;;8.47;5.83;;;;;;;10.46;40.80;100528.50;1432529;91;21577;-82
2022/02/04 12:28:58;;;;;;;10.07;6.53;;;;;;;10.20;39.97;100529.09;1426000;91;21406;-82
2022/02/04 12:31:35;;;;;;;10.63;6.67;;;;;;;9.65;39.44;100521.78;1434357;91;21480;-82
2022/02/04 12:34:13;;;;;;;8.83;6.17;;;;;;;9.32;41.94;100516.43;1432171;91;21589;-82
2022/02/04 12:36:57;;;;;;;11.60;5.53;;;;;;;9.45;43.06;100518.30;1428166;91;22661;-82
2022/02/04 12:39:33;;;;;;;7.40;5.07;;;;;;;9.73;42.86;100517.12;1355479;91;22353;-82
2022/02/04 12:42:05;;;;;;;6.43;4.47;;;;;;;9.92;42.00;100509.66;1368320;91;21296;-82
2022/02/04 12:44:36;;;;;;;10.50;6.27;;;;;;;10.00;41.42;100507.14;1516412;91;21297;-83
2022/02/04 12:47:07;;;;;;;7.45;4.85;;;;;;;10.03;42.17;100499.41;1424842;91;21318;-82
2022/02/04 12:49:54;;;;;;;15.80;6.90;;;;;;;10.07;41.39;100505.61;1516404;91;21178;-83
2022/02/04 12:52:27;;;;;;;7.23;4.50;;;;;;;10.47;41.92;100506.34;1481386;91;21310;-83
2022/02/04 12:55:04;;;;;;;8.43;4.87;;;;;;;10.92;41.34;100500.30;1452895;91;21602;-83
2022/02/04 12:57:33;;;;;;;7.33;4.67;;;;;;;11.52;41.36;100480.70;1433223;91;22521;-83
2022/02/04 13:08:41;;;;;;;10.10;5.43;;;;;;;12.03;36.41;100466.39;1436532;91;21376;-85
2022/02/04 13:11:16;;;;;;;5.77;3.83;;;;;;;11.72;41.17;100467.62;1409565;91;22610;-87
2022/02/04 13:13:48;;;;;;;;;;;;;;;11.41;39.92;100461.89;1437834;91;21583;-88
2022/02/04 13:16:29;;;;;;;3.70;3.10;;;;;;;11.01;36.76;100457.03;1429712;91;20906;-87
2022/02/04 13:19:03;;;;;;;5.45;3.62;;;;;;;10.68;40.30;100447.42;1516648;91;21238;-87
2022/02/04 13:21:32;;;;;;;6.60;3.73;;;;;;;10.60;38.07;100452.61;1479424;89;22660;-89
2022/02/04 13:24:07;;;;;;;7.17;5.90;;;;;;;10.45;37.15;100438.20;1408156;89;21605;-89
2022/02/04 13:26:35;;;;;;;7.43;4.20;;;;;;;10.13;37.27;100447.35;1463820;89;21442;-89
2022/02/04 13:29:05;;;;;;;6.27;4.33;;;;;;;9.85;38.49;100441.98;1455281;89;21449;-88
2022/02/04 13:31:36;;;;;;;9.13;5.75;;;;;;;9.90;39.11;100449.00;1450727;89;21449;-87
2022/02/04 13:34:11;;;;;;;16.17;4.80;;;;;;;9.93;38.45;100436.82;1426337;89;21449;-88
2022/02/04 13:36:51;;;;;;;10.03;5.67;;;;;;;10.18;38.30;100441.11;1459311;89;22558;-83
2022/02/04 13:42:08;;;;;;;5.97;3.47;;;;;;;10.30;36.76;100436.05;1418857;89;21361;-84
2022/02/04 13:44:37;;;;;;;6.63;4.70;;;;;;;10.34;37.69;100436.58;1457084;89;21413;-82
2022/02/04 13:47:20;;;;;;;4.37;3.07;;;;;;;10.42;37.87;100429.24;1436880;89;21534;-82
2022/02/04 13:58:53;;;;;;;16.77;10.30;;;;;;;12.17;35.48;100420.71;1415389;89;22279;-83
2022/02/04 14:01:24;;;;;;;;;;;;;;;12.28;33.84;100416.92;1447012;89;21694;-83
2022/02/04 14:03:51;;;;;;;7.43;3.37;;;;;;;11.56;33.43;100413.64;1431189;90;20419;-83
2022/02/04 14:06:23;;;;;;;6.23;3.90;;;;;;;11.52;34.82;100413.13;1432011;90;21464;-83
2022/02/04 14:08:56;;;;;;;7.73;4.80;;;;;;;11.51;34.63;100411.47;1430648;91;21479;-83
2022/02/04 14:11:38;;;;;;;6.17;4.00;;;;;;;11.52;34.79;100408.65;1424835;90;21420;-83
2022/02/04 14:14:10;;;;;;;8.37;3.67;;;;;;;11.73;35.09;100408.30;1424996;91;21590;-82
2022/02/04 14:16:40;;;;;;;5.30;3.33;;;;;;;12.02;34.17;100413.80;1431960;90;21564;-83
2022/02/04 14:19:08;;;;;;;3.80;2.30;;;;;;;11.89;34.62;100408.11;1421112;90;21568;-83
2022/02/04 14:21:35;;;;;;;4.03;2.67;;;;;;;11.51;34.29;100402.20;1422685;90;21587;-82
2022/02/04 14:24:10;;;;;;;6.63;3.40;;;;;;;11.09;34.64;100410.77;1411350;92;21825;-82
2022/02/04 14:26:42;;;;;;;6.23;4.10;;;;;;;10.69;35.19;100412.02;1427644;91;21482;-83
2022/02/04 14:29:16;;;;;;;5.20;3.62;;;;;;;10.32;35.88;100414.22;1391598;92;21430;-82
2022/02/04 14:34:53;;;;;;;5.67;3.27;;;;;;;9.31;36.77;100418.34;1409247;92;21571;-82
2022/02/04 14:37:25;;;;;;;8.10;4.83;;;;;;;8.94;37.75;100416.86;1408557;92;21615;-82
2022/02/04 14:53:23;;;;;;;5.97;2.97;;;;;;;7.27;40.84;100427.23;1410295;92;21585;-84
2022/02/04 14:58:55;;;;;;;5.03;2.90;;;;;;;6.93;41.19;100430.83;1411263;91;23214;-83
2022/02/04 15:01:24;;;;;;;8.37;4.53;;;;;;;6.71;41.47;100429.56;1405143;92;22377;-83
2022/02/04 15:04:02;;;;;;;19.23;9.15;;;;;;;6.49;42.13;100434.37;1364763;92;22311;-84
2022/02/04 15:06:37;;;;;;;9.63;5.60;;;;;;;6.31;42.47;100432.23;1419490;92;21466;-84
2022/02/04 15:09:14;;;;;;;7.97;4.17;;;;;;;6.21;43.04;100440.45;1409119;92;23281;-83
2022/02/04 15:11:44;;;;;;;6.60;4.30;;;;;;;6.07;42.91;100436.30;1487508;92;21335;-83
2022/02/04 15:14:11;;;;;;;6.78;4.30;;;;;;;5.92;43.70;100437.91;1413660;91;21660;-83
2022/02/04 15:16:42;;;;;;;12.60;6.20;;;;;;;5.77;44.05;100431.55;1400338;91;21623;-83
2022/02/04 15:19:08;;;;;;;15.73;8.70;;;;;;;5.68;44.22;100429.63;1409925;91;23467;-83
2022/02/04 15:21:35;;;;;;;16.60;8.70;;;;;;;5.60;45.16;100430.20;1406112;92;21369;-84
2022/02/04 15:24:03;;;;;;;19.23;9.93;;;;;;;5.50;45.20;100434.96;1403012;92;21398;-84
2022/02/04 15:26:31;;;;;;;20.17;11.17;;;;;;;5.41;45.57;100432.06;1409194;91;21442;-84
2022/02/04 15:29:06;;;;;;;28.43;15.17;;;;;;;5.32;45.72;100431.45;1403069;91;21532;-83
2022/02/04 15:31:41;;;;;;;108.87;38.27;;;;;;;5.25;46.15;100425.44;1410039;92;21617;-85
2022/02/04 15:34:03;;;;;;;140.60;52.75;;;;;;;5.19;46.18;100426.73;1410606;92;21623;-84
2022/02/04 15:36:36;;;;;;;108.37;45.20;;;;;;;5.15;46.55;100423.95;1390813;94;21461;-84
2022/02/04 15:39:03;;;;;;;14.57;7.77;;;;;;;5.06;46.84;100409.72;1478705;92;22404;-85
2022/02/04 15:41:32;;;;;;;22.57;10.33;;;;;;;5.07;47.13;100410.59;1376239;91;21429;-84
2022/02/04 15:44:06;;;;;;;24.20;10.30;;;;;;;5.05;47.65;100408.06;1413956;92;22853;-85
2022/02/04 15:52:02;;;;;;;28.37;14.53;;;;;;;4.85;48.78;100393.78;1421271;90;22520;-81
2022/02/04 15:56:56;;;;;;;43.13;21.37;;;;;;;4.72;49.26;100395.64;1428323;91;22293;-82
2022/02/04 15:59:45;;;;;;;50.07;21.47;;;;;;;4.70;49.44;100404.08;1418532;90;22115;-83
2022/02/04 16:04:33;;;;;;;38.47;22.13;;;;;;;4.67;49.82;100408.23;1441403;89;22158;-83
2022/02/04 16:07:00;;;;;;;42.67;23.27;;;;;;;4.66;49.84;100411.33;1443880;89;22681;-82
2022/02/04 16:09:27;;;;;;;54.60;26.67;;;;;;;4.68;50.22;100404.65;1441203;89;23110;-82
2022/02/04 16:14:47;;;;;;;51.20;25.90;;;;;;;4.69;50.69;100410.25;1408651;92;22163;-82
2022/02/04 16:17:26;;;;;;;;;;;;;;;4.68;51.13;100403.34;1447728;89;22475;-82
2022/02/04 16:19:47;;;;;;;52.70;25.33;;;;;;;4.59;52.21;100416.63;1404482;92;20948;-82
2022/02/04 16:22:27;;;;;;;43.03;22.80;;;;;;;4.57;51.16;100421.62;1385983;91;22179;-82
2022/02/04 16:25:04;;;;;;;41.93;20.93;;;;;;;4.56;51.57;100417.33;1404472;92;22348;-83
2022/02/04 16:29:59;;;;;;;44.33;23.23;;;;;;;4.59;51.42;100402.70;1453697;89;22195;-83
2022/02/04 16:32:28;;;;;;;33.43;17.80;;;;;;;4.62;51.23;100402.47;1443628;89;22133;-83
2022/02/04 16:35:02;;;;;;;35.20;17.03;;;;;;;4.66;51.20;100405.23;1440978;89;23272;-82
2022/02/04 16:37:31;;;;;;;32.77;17.27;;;;;;;4.66;51.42;100400.84;1437084;89;22335;-82
2022/02/04 16:40:03;;;;;;;28.47;15.80;;;;;;;4.64;51.30;100404.04;1426961;89;23128;-82
2022/02/04 16:42:31;;;;;;;25.37;12.87;;;;;;;4.62;51.32;100405.92;1446469;89;21481;-83
2022/02/04 16:44:59;;;;;;;23.50;12.10;;;;;;;4.62;51.20;100397.23;1444142;89;22116;-82
2022/02/04 16:47:27;;;;;;;27.40;13.57;;;;;;;4.59;51.66;100398.77;1442584;89;22675;-81
2022/02/04 16:49:54;;;;;;;28.50;13.50;;;;;;;4.57;51.33;100405.41;1439489;89;23380;-81
2022/02/04 16:52:21;;;;;;;26.03;13.77;;;;;;;4.56;51.56;100415.55;1441164;89;23070;-82
2022/02/04 16:54:48;;;;;;;28.60;15.13;;;;;;;4.55;51.43;100397.32;1442683;89;22116;-82
2022/02/04 16:57:15;;;;;;;23.03;12.53;;;;;;;4.50;51.71;100401.09;1438647;89;22385;-82
2022/02/04 16:59:42;;;;;;;23.43;10.87;;;;;;;4.47;51.91;100410.48;1444178;89;22580;-82
2022/02/04 17:02:10;;;;;;;20.57;10.70;;;;;;;4.43;51.76;100415.59;1446753;89;22150;-83
2022/02/04 17:04:37;;;;;;;21.07;12.73;;;;;;;4.38;52.33;100416.38;1432561;90;22154;-83
2022/02/04 17:07:09;;;;;;;27.30;15.33;;;;;;;4.37;52.46;100414.69;1422653;90;23085;-82
2022/02/04 17:09:38;;;;;;;24.43;14.43;;;;;;;4.34;52.52;100417.52;1434119;90;22850;-84